createdAt,value
2023-03-26T00:02:06.033Z,96742.97
2023-03-26T00:04:34.640Z,96747.53
2023-03-26T00:07:03.102Z,96752.88
2023-03-26T00:09:31.408Z,96749.47
2023-03-26T00:11:59.498Z,96750.28
2023-03-26T00:14:29.287Z,96752.03
2023-03-26T00:16:57.679Z,96749.47
2023-03-26T00:19:27.976Z,96759.22
2023-03-26T00:21:57.807Z,96753.97
2023-03-26T00:24:30.534Z,96770.09
2023-03-26T00:26:59.761Z,96757.63
2023-03-26T00:29:28.829Z,96762.16
2023-03-26T00:31:57.027Z,96763.00
2023-03-26T00:34:26.405Z,96754.19
2023-03-26T00:36:56.038Z,96761.28
2023-03-26T00:39:24.583Z,96751.50
2023-03-26T00:41:54.698Z,96753.34
2023-03-26T00:44:23.158Z,96750.66
2023-03-26T00:46:51.326Z,96757.00
2023-03-26T00:49:19.484Z,96747.13
2023-03-26T00:51:47.621Z,96744.56
2023-03-26T00:54:17.449Z,96750.75
2023-03-26T00:56:45.691Z,96738.31
2023-03-26T00:59:13.844Z,96737.47
2023-03-26T01:01:42.334Z,96726.72
2023-03-26T01:04:31.407Z,96720.47
2023-03-26T01:07:02.865Z,96718.66
2023-03-26T01:09:37.795Z,96713.41
2023-03-26T01:12:07.954Z,96717.78
2023-03-26T01:14:36.206Z,96717.91
2023-03-26T01:17:06.094Z,96717.91
2023-03-26T01:19:38.537Z,96713.53
2023-03-26T01:22:09.693Z,96705.34
2023-03-26T01:24:39.440Z,96699.25
2023-03-26T01:27:20.232Z,96689.41
2023-03-26T01:29:52.979Z,96696.56
2023-03-26T01:32:29.176Z,96683.22
2023-03-26T01:35:04.758Z,96688.59
2023-03-26T01:37:36.968Z,96686.72
2023-03-26T01:40:07.908Z,96689.41
2023-03-26T01:42:37.588Z,96685.03
2023-03-26T01:45:09.378Z,96672.56
2023-03-26T01:47:38.552Z,96673.44
2023-03-26T01:50:08.977Z,96685.03
2023-03-26T01:52:37.162Z,96686.97
2023-03-26T01:55:11.732Z,96679.78
2023-03-26T01:57:47.538Z,96671.72
2023-03-26T02:00:22.194Z,96670.00
2023-03-26T02:02:59.384Z,96683.31
2023-03-26T02:05:30.575Z,96678.94
2023-03-26T02:08:01.390Z,96672.69
2023-03-26T02:10:31.743Z,96680.75
2023-03-26T02:12:59.888Z,96673.69
2023-03-26T02:15:28.080Z,96670.13
2023-03-26T02:17:56.226Z,96666.47
2023-03-26T02:20:24.420Z,96663.78
2023-03-26T02:22:52.910Z,96671.00
2023-03-26T02:25:21.787Z,96674.63
2023-03-26T02:27:56.218Z,96680.88
2023-03-26T02:30:26.725Z,96687.19
2023-03-26T02:32:59.326Z,96676.47
2023-03-26T02:35:33.428Z,96681.81
2023-03-26T02:38:03.498Z,96679.13
2023-03-26T02:40:31.841Z,96672.06
2023-03-26T02:43:01.969Z,96680.13
2023-03-26T02:45:32.964Z,96694.50
2023-03-26T02:48:20.354Z,96682.94
2023-03-26T02:51:00.405Z,96687.31
2023-03-26T02:54:03.734Z,96692.81
2023-03-26T02:56:50.973Z,96680.25
2023-03-26T02:59:43.574Z,96693.69
2023-03-26T03:02:38.737Z,96687.44
2023-03-26T03:05:26.877Z,96688.41
2023-03-26T03:08:13.645Z,96680.34
2023-03-26T03:10:59.252Z,96691.09
2023-03-26T03:13:47.775Z,96681.34
2023-03-26T03:16:24.166Z,96683.03
2023-03-26T03:18:57.770Z,96678.66
2023-03-26T03:21:35.115Z,96680.47
2023-03-26T03:24:03.371Z,96691.09
2023-03-26T03:26:36.622Z,96677.78
2023-03-26T03:29:18.483Z,96675.97
2023-03-26T03:31:48.139Z,96681.47
2023-03-26T03:34:31.123Z,96687.66
2023-03-26T03:36:59.555Z,96674.25
2023-03-26T03:39:37.031Z,96680.59
2023-03-26T03:42:05.546Z,96663.63
2023-03-26T03:44:34.183Z,96656.44
2023-03-26T03:47:07.121Z,96662.66
2023-03-26T03:49:37.785Z,96662.66
2023-03-26T03:52:06.888Z,96669.00
2023-03-26T03:54:40.859Z,96687.91
2023-03-26T03:57:22.172Z,96688.03
2023-03-26T03:59:59.113Z,96694.22
2023-03-26T04:02:35.044Z,96695.09
2023-03-26T04:05:07.418Z,96700.47
2023-03-26T04:07:36.831Z,96700.59
2023-03-26T04:10:09.147Z,96702.53
2023-03-26T04:12:56.162Z,96704.22
2023-03-26T04:15:40.538Z,96703.50
2023-03-26T04:18:11.907Z,96710.59
2023-03-26T04:20:46.642Z,96705.22
2023-03-26T04:23:21.152Z,96699.84
2023-03-26T04:25:54.156Z,96700.81
2023-03-26T04:28:30.543Z,96699.97
2023-03-26T04:31:24.559Z,96684.81
2023-03-26T04:33:55.945Z,96687.38
2023-03-26T04:36:27.165Z,96689.13
2023-03-26T04:38:55.751Z,96678.38
2023-03-26T04:41:32.595Z,96677.50
2023-03-26T04:44:07.244Z,96673.00
2023-03-26T04:46:55.678Z,96672.00
2023-03-26T04:49:32.806Z,96672.00
2023-03-26T04:52:01.062Z,96680.06
2023-03-26T04:54:47.393Z,96674.69
2023-03-26T04:57:20.660Z,96666.66
2023-03-26T05:00:18.764Z,96670.19
2023-03-26T05:02:53.564Z,96672.88
2023-03-26T05:05:23.211Z,96669.25
2023-03-26T05:07:51.973Z,96660.19
2023-03-26T05:10:21.973Z,96659.25
2023-03-26T05:12:54.476Z,96661.06
2023-03-26T05:15:32.477Z,96658.25
2023-03-26T05:18:03.710Z,96661.81
2023-03-26T05:20:40.799Z,96659.13
2023-03-26T05:23:10.975Z,96649.25
2023-03-26T05:25:54.612Z,96655.56
2023-03-26T05:28:26.855Z,96642.16
2023-03-26T05:31:02.698Z,96650.94
2023-03-26T05:33:35.717Z,96638.25
2023-03-26T05:36:13.394Z,96648.03
2023-03-26T05:38:47.287Z,96639.00
2023-03-26T05:41:19.535Z,96635.34
2023-03-26T05:43:49.150Z,96636.19
2023-03-26T05:46:24.708Z,96636.09
2023-03-26T05:48:54.004Z,96637.91
2023-03-26T05:51:24.610Z,96639.59
2023-03-26T05:54:02.644Z,96636.81
2023-03-26T05:56:30.867Z,96640.59
2023-03-26T05:59:15.486Z,96636.16
2023-03-26T06:02:10.152Z,96625.91
2023-03-26T06:05:13.593Z,96629.00
2023-03-26T06:08:02.725Z,96622.59
2023-03-26T06:10:39.049Z,96619.72
2023-03-26T06:13:07.321Z,96614.06
2023-03-26T06:15:38.883Z,96610.13
2023-03-26T06:18:27.371Z,96602.53
2023-03-26T06:21:22.784Z,96601.13
2023-03-26T06:24:12.520Z,96615.50
2023-03-26T06:26:59.081Z,96621.09
2023-03-26T06:29:53.537Z,96630.53
2023-03-26T06:32:34.794Z,96627.31
2023-03-26T06:35:11.320Z,96622.94
2023-03-26T06:37:39.667Z,96632.25
2023-03-26T06:40:12.379Z,96643.28
2023-03-26T06:43:08.576Z,96641.25
2023-03-26T06:45:57.141Z,96636.84
2023-03-26T06:48:45.552Z,96633.22
2023-03-26T06:51:32.032Z,96630.28
2023-03-26T06:54:18.981Z,96631.91
2023-03-26T06:57:08.238Z,96630.81
2023-03-26T06:59:39.226Z,96636.06
2023-03-26T07:02:26.639Z,96633.38
2023-03-26T07:05:13.903Z,96641.56
2023-03-26T07:08:00.711Z,96644.13
2023-03-26T07:11:04.189Z,96633.91
2023-03-26T07:13:56.325Z,96617.59
2023-03-26T07:16:50.959Z,96608.34
2023-03-26T07:19:39.436Z,96609.97
2023-03-26T07:22:08.151Z,96602.75
2023-03-26T07:25:06.426Z,96596.31
2023-03-26T07:28:05.833Z,96601.47
2023-03-26T07:31:07.517Z,96589.75
2023-03-26T07:33:58.748Z,96601.03
2023-03-26T07:36:47.390Z,96594.69
2023-03-26T07:39:40.800Z,96598.13
2023-03-26T07:42:39.198Z,96592.50
2023-03-26T07:45:27.275Z,96586.19
2023-03-26T07:48:20.173Z,96578.88
2023-03-26T07:51:09.748Z,96575.22
2023-03-26T07:54:11.078Z,96559.03
2023-03-26T07:57:00.828Z,96552.44
2023-03-26T07:59:54.131Z,96547.91
2023-03-26T08:02:56.477Z,96547.91
2023-03-26T08:05:48.922Z,96559.38
2023-03-26T08:08:28.635Z,96553.06
2023-03-26T08:11:29.998Z,96551.13
2023-03-26T08:14:14.790Z,96549.41
2023-03-26T08:16:44.596Z,96542.09
2023-03-26T08:19:22.514Z,96540.13
2023-03-26T08:21:53.617Z,96540.06
2023-03-26T08:24:23.941Z,96542.59
2023-03-26T08:26:55.250Z,96542.47
2023-03-26T08:29:28.105Z,96537.00
2023-03-26T08:31:57.563Z,96531.53
2023-03-26T08:34:25.800Z,96531.41
2023-03-26T08:36:55.761Z,96531.28
2023-03-26T08:39:24.201Z,96537.38
2023-03-26T08:42:29.705Z,96531.88
2023-03-26T08:45:26.302Z,96515.56
2023-03-26T08:48:20.246Z,96510.94
2023-03-26T08:51:13.987Z,96505.56
2023-03-26T08:54:07.820Z,96491.06
2023-03-26T08:56:40.891Z,96489.09
2023-03-26T08:59:50.196Z,96490.66
2023-03-26T09:02:32.303Z,96486.91
2023-03-26T09:05:37.293Z,96479.59
2023-03-26T09:08:56.231Z,96471.41
2023-03-26T09:12:11.616Z,96468.63
2023-03-26T09:15:07.230Z,96456.88
2023-03-26T09:17:57.304Z,96460.31
2023-03-26T09:20:58.446Z,96456.53
2023-03-26T09:23:42.953Z,96450.16
2023-03-26T09:26:27.936Z,96443.84
2023-03-26T09:29:47.471Z,96431.38
2023-03-26T09:32:51.132Z,96429.56
2023-03-26T09:35:49.095Z,96415.16
2023-03-26T09:38:23.865Z,96400.75
2023-03-26T09:40:54.393Z,96403.31
2023-03-26T09:43:37.914Z,96393.19
2023-03-26T09:46:12.387Z,96396.50
2023-03-26T09:48:57.310Z,96396.25
2023-03-26T09:51:44.061Z,96392.47
2023-03-26T09:54:20.422Z,96388.56
2023-03-26T09:56:52.661Z,96387.31
2023-03-26T09:59:48.236Z,96370.13
2023-03-26T10:02:23.616Z,96373.53
2023-03-26T10:05:35.429Z,96359.84
2023-03-26T10:08:14.564Z,96353.38
2023-03-26T10:10:44.496Z,96353.22
2023-03-26T10:13:18.736Z,96346.53
2023-03-26T10:15:58.643Z,96337.47
2023-03-26T10:18:32.149Z,96331.84
2023-03-26T10:21:03.654Z,96328.88
2023-03-26T10:23:54.176Z,96314.34
2023-03-26T10:26:33.654Z,96312.41
2023-03-26T10:29:10.134Z,96301.38
2023-03-26T10:31:42.118Z,96304.78
2023-03-26T10:34:28.747Z,96303.09
2023-03-26T10:37:05.517Z,96310.16
2023-03-26T10:40:08.347Z,96301.72
2023-03-26T10:42:55.073Z,96306.00
2023-03-26T10:45:29.500Z,96294.81
2023-03-26T10:48:27.195Z,96295.31
2023-03-26T10:51:13.036Z,96285.72
2023-03-26T10:53:44.026Z,96278.16
2023-03-26T10:56:16.247Z,96286.09
2023-03-26T10:58:48.607Z,96283.16
2023-03-26T11:01:23.869Z,96283.88
2023-03-26T11:03:52.934Z,96269.28
2023-03-26T11:06:31.643Z,96248.63
2023-03-26T11:09:05.085Z,96252.91
2023-03-26T11:11:36.194Z,96242.00
2023-03-26T11:14:07.113Z,96238.34
2023-03-26T11:16:42.000Z,96240.03
2023-03-26T11:19:13.179Z,96222.94
2023-03-26T11:21:43.840Z,96233.78
2023-03-26T11:24:31.459Z,96221.22
2023-03-26T11:27:14.854Z,96213.13
2023-03-26T11:29:47.571Z,96201.53
2023-03-26T11:32:17.928Z,96198.84
2023-03-26T11:34:49.991Z,96195.31
2023-03-26T11:37:20.205Z,96182.69
2023-03-26T11:39:53.472Z,96179.91
2023-03-26T11:42:24.643Z,96171.53
2023-03-26T11:44:54.737Z,96172.25
2023-03-26T11:47:24.958Z,96169.44
2023-03-26T11:49:53.256Z,96158.56
2023-03-26T11:52:21.722Z,96156.59
2023-03-26T11:54:51.264Z,96144.97
2023-03-26T11:57:21.207Z,96145.81
2023-03-26T11:59:57.629Z,96138.59
2023-03-26T12:02:29.901Z,96152.03
2023-03-26T12:05:12.708Z,96145.69
2023-03-26T12:07:46.591Z,96124.88
2023-03-26T12:10:31.433Z,96116.81
2023-03-26T12:13:00.898Z,96114.13
2023-03-26T12:15:29.126Z,96108.88
2023-03-26T12:17:58.305Z,96103.50
2023-03-26T12:20:38.714Z,96091.88
2023-03-26T12:23:08.251Z,96089.91
2023-03-26T12:25:38.906Z,96072.75
2023-03-26T12:28:18.081Z,96070.94
2023-03-26T12:30:54.400Z,96062.00
2023-03-26T12:33:26.191Z,96063.72
2023-03-26T12:35:54.568Z,96061.03
2023-03-26T12:38:29.029Z,96057.34
2023-03-26T12:44:42.225Z,96053.81
2023-03-26T12:44:49.801Z,96047.44
2023-03-26T12:47:57.631Z,96050.13
2023-03-26T12:49:36.577Z,96041.09
2023-03-26T12:52:11.388Z,96046.47
2023-03-26T12:54:44.885Z,96038.50
2023-03-26T12:57:20.511Z,96042.06
2023-03-26T12:59:54.677Z,96035.69
2023-03-26T13:02:33.293Z,96033.28
2023-03-26T13:05:07.480Z,96033.28
2023-03-26T13:07:44.734Z,96029.72
2023-03-26T13:10:30.630Z,96014.75
2023-03-26T13:13:06.284Z,96012.06
2023-03-26T13:15:34.540Z,96006.66
2023-03-26T13:18:09.019Z,96002.56
2023-03-26T13:20:49.169Z,96001.97
2023-03-26T13:23:22.459Z,95998.56
2023-03-26T13:25:54.189Z,95991.66
2023-03-26T13:28:28.368Z,95990.94
2023-03-26T13:31:01.866Z,95984.84
2023-03-26T13:33:49.972Z,95986.69
2023-03-26T13:36:24.349Z,95978.75
2023-03-26T13:39:14.576Z,95968.00
2023-03-26T13:42:04.172Z,95962.75
2023-03-26T13:44:39.027Z,95964.59
2023-03-26T13:47:09.790Z,95961.06
2023-03-26T13:49:39.845Z,95958.63
2023-03-26T13:52:09.161Z,95955.38
2023-03-26T13:54:40.194Z,95961.75
2023-03-26T13:57:10.636Z,95956.38
2023-03-26T13:59:41.790Z,95952.13
2023-03-26T14:02:11.988Z,95947.72
2023-03-26T14:04:41.171Z,95947.59
2023-03-26T14:07:10.849Z,95941.38
2023-03-26T14:09:41.686Z,95932.47
2023-03-26T14:12:35.057Z,95930.63
2023-03-26T14:15:05.448Z,95932.59
2023-03-26T14:17:38.547Z,95933.47
2023-03-26T14:20:51.563Z,95924.75
2023-03-26T14:23:40.285Z,95920.41
2023-03-26T14:26:14.739Z,95920.66
2023-03-26T14:28:57.832Z,95909.09
2023-03-26T14:34:04.835Z,95899.44
2023-03-26T14:36:49.728Z,95895.91
2023-03-26T14:39:28.111Z,95894.22
2023-03-26T14:41:58.442Z,95879.06
2023-03-26T14:44:52.663Z,95874.56
2023-03-26T14:47:22.999Z,95864.66
2023-03-26T14:50:26.729Z,95866.34
2023-03-26T14:53:01.269Z,95855.31
2023-03-26T14:55:43.265Z,95855.19
2023-03-26T14:58:28.104Z,95853.19
2023-03-26T15:01:24.376Z,95850.34
2023-03-26T15:04:23.200Z,95854.75
2023-03-26T15:07:30.232Z,95847.44
2023-03-26T15:10:22.570Z,95849.13
2023-03-26T15:13:04.116Z,95842.88
2023-03-26T15:16:11.082Z,95851.09
2023-03-26T15:19:17.866Z,95847.97
2023-03-26T15:22:04.392Z,95858.13
2023-03-26T15:24:49.294Z,95850.38
2023-03-26T15:27:39.744Z,95836.06
2023-03-26T15:30:43.643Z,95852.19
2023-03-26T15:33:56.949Z,95851.34
2023-03-26T15:36:56.542Z,95839.06
2023-03-26T15:39:58.748Z,95845.28
2023-03-26T15:42:30.569Z,95849.81
2023-03-26T15:45:01.802Z,95852.63
2023-03-26T15:47:37.897Z,95858.84
2023-03-26T15:50:17.019Z,95867.75
2023-03-26T15:52:48.900Z,95883.19
2023-03-26T15:55:27.772Z,95874.97
2023-03-26T15:57:58.056Z,95866.78
2023-03-26T16:00:29.112Z,95866.63
2023-03-26T16:03:12.067Z,95863.81
2023-03-26T16:05:46.393Z,95862.94
2023-03-26T16:08:20.090Z,95865.63
2023-03-26T16:10:52.213Z,95857.56
2023-03-26T16:13:35.113Z,95863.66
2023-03-26T16:16:38.615Z,95860.81
2023-03-26T16:19:41.074Z,95862.53
2023-03-26T16:22:12.450Z,95866.91
2023-03-26T16:24:41.053Z,95864.91
2023-03-26T16:27:29.256Z,95866.78
2023-03-26T16:30:20.203Z,95874.00
2023-03-26T16:32:49.967Z,95870.59
2023-03-26T16:35:39.761Z,95874.25
2023-03-26T16:38:11.763Z,95867.19
2023-03-26T16:40:51.840Z,95859.13
2023-03-26T16:43:36.432Z,95860.81
2023-03-26T16:46:07.062Z,95864.34
2023-03-26T16:48:38.696Z,95854.47
2023-03-26T16:51:11.425Z,95845.41
2023-03-26T16:53:42.755Z,95849.78
2023-03-26T16:56:15.997Z,95849.66
2023-03-26T16:58:54.980Z,95849.66
2023-03-26T17:01:30.364Z,95852.34
2023-03-26T17:04:00.761Z,95874.84
2023-03-26T17:06:47.108Z,95877.66
2023-03-26T17:09:21.256Z,95882.19
2023-03-26T17:11:56.550Z,95883.03
2023-03-26T17:14:32.784Z,95880.50
2023-03-26T17:17:13.494Z,95892.09
2023-03-26T17:19:45.962Z,95901.03
2023-03-26T17:22:16.654Z,95888.41
2023-03-26T17:24:47.006Z,95889.25
2023-03-26T17:27:43.611Z,95884.88
2023-03-26T17:30:43.214Z,95899.16
2023-03-26T17:33:14.557Z,95889.41
2023-03-26T17:35:43.813Z,95882.31
2023-03-26T17:38:45.550Z,95883.03
2023-03-26T17:41:15.399Z,95879.38
2023-03-26T17:43:45.159Z,95866.78
2023-03-26T17:46:26.849Z,95877.53
2023-03-26T17:48:59.560Z,95880.34
2023-03-26T17:51:38.820Z,95884.75
2023-03-26T17:54:09.234Z,95887.44
2023-03-26T17:56:38.789Z,95890.13
2023-03-26T17:59:11.883Z,95882.91
2023-03-26T18:01:44.238Z,95874.56
2023-03-26T18:04:15.080Z,95862.41
2023-03-26T18:07:02.243Z,95855.63
2023-03-26T18:09:41.840Z,95857.06
2023-03-26T18:12:34.963Z,95851.53
2023-03-26T18:15:15.131Z,95844.31
2023-03-26T18:17:45.941Z,95847.97
2023-03-26T18:20:21.636Z,95849.81
2023-03-26T18:22:50.123Z,95836.38
2023-03-26T18:25:25.146Z,95831.00
2023-03-26T18:27:53.346Z,95828.44
2023-03-26T18:30:22.669Z,95820.38
2023-03-26T18:33:00.171Z,95832.84
2023-03-26T18:35:29.155Z,95833.84
2023-03-26T18:38:00.350Z,95843.19
2023-03-26T18:40:32.216Z,95845.84
2023-03-26T18:43:00.944Z,95846.88
2023-03-26T18:45:29.969Z,95856.75
2023-03-26T18:48:01.193Z,95854.94
2023-03-26T18:50:30.017Z,95848.69
2023-03-26T18:52:59.997Z,95840.63
2023-03-26T18:55:29.427Z,95847.84
2023-03-26T18:57:57.666Z,95835.25
2023-03-26T19:00:28.504Z,95830.84
2023-03-26T19:03:03.387Z,95835.41
2023-03-26T19:05:32.323Z,95838.09
2023-03-26T19:08:03.353Z,95839.06
2023-03-26T19:10:32.224Z,95848.00
2023-03-26T19:13:01.482Z,95850.53
2023-03-26T19:15:30.136Z,95859.59
2023-03-26T19:18:07.094Z,95859.59
2023-03-26T19:20:40.874Z,95856.22
2023-03-26T19:23:10.385Z,95850.13
2023-03-26T19:25:41.262Z,95850.94
2023-03-26T19:28:15.647Z,95853.63
2023-03-26T19:30:44.022Z,95848.25
2023-03-26T19:33:18.642Z,95849.25
2023-03-26T19:35:47.856Z,95848.41
2023-03-26T19:38:27.169Z,95841.91
2023-03-26T19:40:56.021Z,95839.94
2023-03-26T19:43:24.329Z,95840.03
2023-03-26T19:48:46.292Z,95828.31
2023-03-26T19:51:18.408Z,95836.22
2023-03-26T19:51:20.244Z,95830.84
2023-03-26T19:53:54.205Z,95819.94
2023-03-26T19:56:23.045Z,95828.00
2023-03-26T19:58:51.311Z,95823.63
2023-03-26T20:01:21.060Z,95821.09
2023-03-26T20:03:51.658Z,95824.59
2023-03-26T20:06:23.695Z,95821.78
2023-03-26T20:08:56.389Z,95815.44
2023-03-26T20:11:25.377Z,95816.28
2023-03-26T20:13:53.527Z,95804.53
2023-03-26T20:16:23.739Z,95793.78
2023-03-26T20:18:53.808Z,95792.78
2023-03-26T20:21:21.937Z,95782.88
2023-03-26T20:23:53.549Z,95770.28
2023-03-26T20:26:22.156Z,95759.38
2023-03-26T20:28:53.414Z,95753.19
2023-03-26T20:31:23.072Z,95749.50
2023-03-26T20:33:53.038Z,95740.44
2023-03-26T20:36:34.257Z,95742.13
2023-03-26T20:39:05.758Z,95744.81
2023-03-26T20:41:34.923Z,95736.75
2023-03-26T20:44:04.882Z,95733.91
2023-03-26T20:46:33.333Z,95731.38
2023-03-26T20:49:01.530Z,95732.22
2023-03-26T20:51:31.132Z,95739.28
2023-03-26T20:54:00.447Z,95734.78
2023-03-26T20:56:28.998Z,95741.97
2023-03-26T20:59:09.628Z,95738.47
2023-03-26T21:01:39.017Z,95747.34
2023-03-26T21:04:07.184Z,95741.16
2023-03-26T21:06:37.164Z,95738.47
2023-03-26T21:09:05.913Z,95733.09
2023-03-26T21:11:40.981Z,95716.97
2023-03-26T21:14:10.838Z,95726.84
2023-03-26T21:16:39.623Z,95727.72
2023-03-26T21:19:09.207Z,95725.84
2023-03-26T21:21:47.657Z,95723.16
2023-03-26T21:24:21.471Z,95714.28
2023-03-26T21:26:51.108Z,95712.41
2023-03-26T21:29:19.827Z,95718.78
2023-03-26T21:31:48.804Z,95720.63
2023-03-26T21:34:17.424Z,95718.78
2023-03-26T21:36:47.808Z,95716.09
2023-03-26T21:39:16.548Z,95727.72
2023-03-26T21:41:46.719Z,95721.47
2023-03-26T21:44:15.381Z,95717.78
2023-03-26T21:46:44.289Z,95713.41
2023-03-26T21:49:13.118Z,95716.97
2023-03-26T21:51:41.703Z,95716.09
2023-03-26T21:54:18.833Z,95713.41
2023-03-26T21:56:49.920Z,95712.56
2023-03-26T21:59:21.962Z,95715.25
2023-03-26T22:01:53.010Z,95710.72
2023-03-26T22:04:23.944Z,95711.59
2023-03-26T22:06:54.666Z,95706.22
2023-03-26T22:09:35.562Z,95703.63
2023-03-26T22:12:04.365Z,95709.88
2023-03-26T22:14:33.643Z,95701.81
2023-03-26T22:17:01.831Z,95688.38
2023-03-26T22:19:30.499Z,95682.03
2023-03-26T22:22:00.230Z,95677.63
2023-03-26T22:24:29.807Z,95674.94
2023-03-26T22:26:57.943Z,95669.56
2023-03-26T22:29:26.092Z,95657.13
2023-03-26T22:31:54.219Z,95657.13
2023-03-26T22:34:25.081Z,95649.06
2023-03-26T22:36:53.563Z,95649.06
2023-03-26T22:39:21.838Z,95653.59
2023-03-26T22:41:51.386Z,95652.72
2023-03-26T22:44:20.528Z,95650.03
2023-03-26T22:46:51.470Z,95646.50
2023-03-26T22:49:19.978Z,95636.75
2023-03-26T22:51:48.083Z,95632.22
2023-03-26T22:54:16.187Z,95637.59
2023-03-26T22:56:45.732Z,95633.22
2023-03-26T22:59:15.410Z,95629.66
2023-03-26T23:01:44.372Z,95626.97
2023-03-26T23:04:12.997Z,95611.88
2023-03-26T23:06:59.924Z,95611.00
2023-03-26T23:09:28.055Z,95609.34
2023-03-26T23:11:56.484Z,95608.47
2023-03-26T23:14:26.148Z,95604.94
2023-03-26T23:16:54.979Z,95615.69
2023-03-26T23:19:23.090Z,95612.13
2023-03-26T23:21:51.609Z,95604.06
2023-03-26T23:24:19.900Z,95602.41
2023-03-26T23:26:51.127Z,95581.06
2023-03-26T23:29:19.692Z,95589.13
2023-03-26T23:31:49.334Z,95586.44
2023-03-26T23:34:18.616Z,95591.81
2023-03-26T23:36:47.056Z,95595.47
2023-03-26T23:39:15.987Z,95601.84
2023-03-26T23:41:44.076Z,95616.16
2023-03-26T23:44:14.515Z,95626.03
2023-03-26T23:46:42.765Z,95618.13
2023-03-26T23:49:12.336Z,95623.50
2023-03-26T23:51:40.386Z,95627.03
2023-03-26T23:54:08.924Z,95626.31
2023-03-26T23:56:37.056Z,95638.06
2023-03-26T23:59:06.189Z,95635.38
